Terminal Aerodrome Forecast
Issued by NWS Burlington, VT

Home | Current Version | Previous Version | Text Only | Print | Product List | Glossary On
Versions: 1 2 3 4 5 6 7 8 9 10 11 12 13 14 15
000
FTUS41 KBTV 290522
TAFBTV
TAF
KBTV 290522Z 2906/3006 VRB03KT P6SM BKN120 OVC200
     FM291400 25009G18KT P6SM BKN060
     FM291800 30011G21KT P6SM BKN060
     FM292100 33013G25KT P6SM SCT050 BKN080
     FM300100 33010KT P6SM FEW250=

USA.gov is the U.S. government's official web portal to all federal, state and local government web resources and services.